createdAt,value
2016-03-16T00:00:12.278Z,0
2016-03-16T00:01:12.218Z,0
2016-03-16T00:02:12.253Z,0
2016-03-16T00:03:12.208Z,0
2016-03-16T00:04:12.226Z,0
2016-03-16T00:05:12.197Z,0
2016-03-16T00:06:12.200Z,0
2016-03-16T00:07:12.155Z,0
2016-03-16T00:08:12.174Z,0
2016-03-16T00:09:12.161Z,0
2016-03-16T00:10:12.149Z,0
2016-03-16T00:11:12.136Z,0
2016-03-16T00:12:12.138Z,0
2016-03-16T00:13:12.094Z,0
2016-03-16T00:14:12.113Z,0
2016-03-16T00:15:12.303Z,0
2016-03-16T00:16:12.102Z,0
2016-03-16T00:17:12.074Z,0
2016-03-16T00:18:12.092Z,0
2016-03-16T00:19:12.039Z,0
2016-03-16T00:20:12.030Z,0
2016-03-16T00:21:12.004Z,0
2016-03-16T00:22:12.011Z,0
2016-03-16T00:23:11.970Z,0
2016-03-16T00:24:12.233Z,0
2016-03-16T00:25:14.778Z,0
2016-03-16T00:26:13.419Z,0
2016-03-16T00:27:12.043Z,0
2016-03-16T00:28:13.056Z,0
2016-03-16T00:29:12.493Z,0
2016-03-16T00:30:12.309Z,0
2016-03-16T00:31:11.888Z,0
2016-03-16T00:32:11.952Z,0
2016-03-16T00:33:11.860Z,0
2016-03-16T00:34:13.597Z,0
2016-03-16T00:35:11.816Z,0
2016-03-16T00:36:11.959Z,0
2016-03-16T00:37:11.634Z,0
2016-03-16T00:38:12.620Z,0
2016-03-16T00:39:12.106Z,0
2016-03-16T00:40:13.736Z,0
2016-03-16T00:41:12.971Z,0
2016-03-16T00:42:11.754Z,0
2016-03-16T00:43:11.740Z,0
2016-03-16T00:44:12.384Z,0
2016-03-16T00:45:12.058Z,0
2016-03-16T00:46:11.592Z,0
2016-03-16T00:47:12.078Z,0
2016-03-16T00:48:11.722Z,0
2016-03-16T00:49:11.678Z,0
2016-03-16T00:50:12.962Z,0
2016-03-16T00:51:12.886Z,0
2016-03-16T00:52:12.124Z,0
2016-03-16T00:53:12.720Z,0
2016-03-16T00:54:11.660Z,0
2016-03-16T00:55:12.022Z,0
2016-03-16T00:56:11.932Z,0
2016-03-16T00:57:11.590Z,0
2016-03-16T00:58:11.608Z,0
2016-03-16T00:59:11.597Z,0
2016-03-16T01:00:11.583Z,0
2016-03-16T01:01:11.586Z,0
2016-03-16T01:02:11.541Z,0
2016-03-16T01:03:11.544Z,0
2016-03-16T01:04:11.579Z,0
2016-03-16T01:05:11.519Z,0
2016-03-16T01:06:11.521Z,0
2016-03-16T01:07:11.511Z,0
2016-03-16T01:08:11.546Z,0
2016-03-16T01:09:11.470Z,0
2016-03-16T01:10:11.519Z,0
2016-03-16T01:11:11.459Z,0
2016-03-16T01:12:11.493Z,0
2016-03-16T01:13:11.480Z,0
2016-03-16T01:14:11.440Z,0
2016-03-16T01:15:11.475Z,0
2016-03-16T01:16:11.431Z,0
2016-03-16T01:17:11.448Z,0
2016-03-16T01:18:11.406Z,0
2016-03-16T01:19:11.408Z,0
2016-03-16T01:20:11.379Z,0
2016-03-16T01:21:11.397Z,0
2016-03-16T01:22:11.370Z,0
2016-03-16T01:23:11.372Z,0
2016-03-16T01:24:11.328Z,0
2016-03-16T01:25:11.346Z,0
2016-03-16T01:26:11.380Z,0
2016-03-16T01:27:11.320Z,0
2016-03-16T01:28:11.354Z,0
2016-03-16T01:29:11.310Z,0
2016-03-16T01:30:11.609Z,0
2016-03-16T01:31:11.283Z,0
2016-03-16T01:32:11.302Z,0
2016-03-16T01:33:11.258Z,0
2016-03-16T01:34:11.308Z,0
2016-03-16T01:35:11.247Z,0
2016-03-16T01:36:11.219Z,0
2016-03-16T01:37:11.207Z,0
2016-03-16T01:38:11.210Z,0
2016-03-16T01:39:11.212Z,0
2016-03-16T01:40:11.168Z,0
2016-03-16T01:41:11.186Z,0
2016-03-16T01:42:11.235Z,0
2016-03-16T01:43:11.066Z,0
2016-03-16T01:44:11.490Z,0
2016-03-16T01:45:11.149Z,0
2016-03-16T01:46:12.262Z,0
2016-03-16T01:47:11.139Z,0
2016-03-16T01:48:11.126Z,0
2016-03-16T01:49:11.129Z,0
2016-03-16T01:50:11.148Z,0
2016-03-16T01:51:11.087Z,0
2016-03-16T01:52:11.434Z,0
2016-03-16T01:53:13.593Z,0
2016-03-16T01:54:11.284Z,0
2016-03-16T01:55:11.817Z,0
2016-03-16T01:56:11.804Z,0
2016-03-16T01:57:10.870Z,0
2016-03-16T01:58:11.529Z,0
2016-03-16T01:59:13.891Z,0
2016-03-16T02:00:12.612Z,0
2016-03-16T02:01:11.006Z,0
2016-03-16T02:02:25.180Z,0
2016-03-16T02:03:25.511Z,0
2016-03-16T02:04:11.061Z,0
2016-03-16T02:05:11.063Z,0
2016-03-16T02:06:10.795Z,0
2016-03-16T02:07:10.927Z,0
2016-03-16T02:08:10.929Z,0
2016-03-16T02:09:12.229Z,0
2016-03-16T02:10:26.529Z,0
2016-03-16T02:11:25.687Z,0
2016-03-16T02:12:11.190Z,0
2016-03-16T02:13:25.178Z,0
2016-03-16T02:14:10.868Z,0
2016-03-16T02:15:11.245Z,0
2016-03-16T02:16:10.997Z,0
2016-03-16T02:17:10.657Z,0
2016-03-16T02:18:10.831Z,0
2016-03-16T02:19:10.819Z,0
2016-03-16T02:20:10.805Z,0
2016-03-16T02:21:10.779Z,0
2016-03-16T02:22:10.796Z,0
2016-03-16T02:23:10.768Z,0
2016-03-16T02:24:10.754Z,0
2016-03-16T02:25:10.757Z,0
2016-03-16T02:26:10.760Z,0
2016-03-16T02:27:10.731Z,0
2016-03-16T02:28:10.781Z,0
2016-03-16T02:29:10.721Z,0
2016-03-16T02:30:10.693Z,0
2016-03-16T02:31:10.711Z,0
2016-03-16T02:32:10.698Z,0
2016-03-16T02:33:10.686Z,0
2016-03-16T02:34:10.688Z,0
2016-03-16T02:35:10.659Z,0
2016-03-16T02:36:10.647Z,0
2016-03-16T02:37:10.478Z,0
2016-03-16T02:38:10.464Z,0
2016-03-16T02:39:10.624Z,0
2016-03-16T02:40:10.626Z,0
2016-03-16T02:41:10.597Z,0
2016-03-16T02:42:10.585Z,0
2016-03-16T02:43:10.744Z,0
2016-03-16T02:44:10.558Z,0
2016-03-16T02:45:10.593Z,0
2016-03-16T02:46:10.548Z,0
2016-03-16T02:47:10.566Z,0
2016-03-16T02:48:10.522Z,0
2016-03-16T02:49:10.541Z,0
2016-03-16T02:50:10.512Z,0
2016-03-16T02:51:10.515Z,0
2016-03-16T02:52:10.486Z,0
2016-03-16T02:53:10.473Z,0
2016-03-16T02:54:10.460Z,0
2016-03-16T02:55:10.479Z,0
2016-03-16T02:56:10.466Z,0
2016-03-16T02:57:10.468Z,0
2016-03-16T02:58:10.456Z,0
2016-03-16T02:59:10.458Z,0
2016-03-16T03:00:10.414Z,0
2016-03-16T03:01:10.401Z,0
2016-03-16T03:02:10.404Z,0
2016-03-16T03:03:13.531Z,0
2016-03-16T03:04:10.377Z,0
2016-03-16T03:05:11.255Z,0
2016-03-16T03:06:11.446Z,0
2016-03-16T03:07:11.167Z,0
2016-03-16T03:08:10.326Z,0
2016-03-16T03:09:10.360Z,0
2016-03-16T03:10:10.316Z,0
2016-03-16T03:11:10.460Z,0
2016-03-16T03:12:11.618Z,0
2016-03-16T03:13:10.324Z,0
2016-03-16T03:14:10.514Z,0
2016-03-16T03:15:10.721Z,0
2016-03-16T03:16:10.566Z,0
2016-03-16T03:17:10.615Z,0
2016-03-16T03:18:12.729Z,0
2016-03-16T03:19:24.543Z,0
2016-03-16T03:20:10.530Z,0
2016-03-16T03:21:24.658Z,0
2016-03-16T03:22:10.676Z,0
2016-03-16T03:23:10.632Z,0
2016-03-16T03:24:10.604Z,0
2016-03-16T03:25:10.153Z,0
2016-03-16T03:26:10.203Z,0
2016-03-16T03:27:10.128Z,0
2016-03-16T03:28:12.348Z,0
2016-03-16T03:29:24.617Z,0
2016-03-16T03:30:24.698Z,0
2016-03-16T03:31:10.795Z,0
2016-03-16T03:32:24.312Z,0
2016-03-16T03:33:10.503Z,0
2016-03-16T03:34:10.068Z,0
2016-03-16T03:35:10.071Z,0
2016-03-16T03:36:10.042Z,0
2016-03-16T03:37:10.044Z,0
2016-03-16T03:38:10.033Z,0
2016-03-16T03:39:10.019Z,0
2016-03-16T03:40:10.005Z,0
2016-03-16T03:41:09.993Z,0
2016-03-16T03:42:10.011Z,0
2016-03-16T03:43:09.983Z,0
2016-03-16T03:44:09.969Z,0
2016-03-16T03:45:09.957Z,0
2016-03-16T03:46:09.944Z,0
2016-03-16T03:47:09.947Z,0
2016-03-16T03:48:09.934Z,0
2016-03-16T03:49:09.921Z,0
2016-03-16T03:50:09.893Z,0
2016-03-16T03:51:09.926Z,0
2016-03-16T03:52:09.866Z,0
2016-03-16T03:53:09.900Z,0
2016-03-16T03:54:09.871Z,0
2016-03-16T03:55:09.905Z,0
2016-03-16T03:56:09.876Z,0
2016-03-16T03:57:09.833Z,0
2016-03-16T03:58:09.804Z,0
2016-03-16T03:59:09.807Z,0
2016-03-16T04:00:09.794Z,0
2016-03-16T04:01:09.797Z,0
2016-03-16T04:02:09.800Z,0
2016-03-16T04:03:09.771Z,0
2016-03-16T04:04:09.758Z,0
2016-03-16T04:05:09.775Z,0
2016-03-16T04:06:09.763Z,0
2016-03-16T04:07:09.750Z,0
2016-03-16T04:08:09.705Z,0
2016-03-16T04:09:09.708Z,0
2016-03-16T04:10:09.680Z,0
2016-03-16T04:11:09.683Z,0
2016-03-16T04:12:09.670Z,0
2016-03-16T04:13:09.657Z,0
2016-03-16T04:14:09.629Z,0
2016-03-16T04:15:09.646Z,0
2016-03-16T04:16:09.618Z,0
2016-03-16T04:17:09.637Z,0
2016-03-16T04:18:09.623Z,0
2016-03-16T04:19:09.626Z,0
2016-03-16T04:20:09.598Z,0
2016-03-16T04:21:09.569Z,0
2016-03-16T04:22:12.196Z,0
2016-03-16T04:23:11.497Z,0
2016-03-16T04:24:10.515Z,0
2016-03-16T04:25:09.361Z,0
2016-03-16T04:26:09.989Z,0
2016-03-16T04:27:09.554Z,0
2016-03-16T04:28:09.479Z,0
2016-03-16T04:29:09.497Z,0
2016-03-16T04:30:09.484Z,0
2016-03-16T04:31:11.050Z,0
2016-03-16T04:32:09.459Z,0
2016-03-16T04:33:09.742Z,0
2016-03-16T04:34:10.151Z,0
2016-03-16T04:35:09.576Z,0
2016-03-16T04:36:09.672Z,0
2016-03-16T04:37:25.300Z,0
2016-03-16T04:38:10.880Z,0
2016-03-16T04:39:24.056Z,0
2016-03-16T04:40:10.527Z,0
2016-03-16T04:41:09.811Z,0
2016-03-16T04:42:09.954Z,0
2016-03-16T04:43:09.332Z,0
2016-03-16T04:44:09.303Z,0
2016-03-16T04:45:09.353Z,0
2016-03-16T04:46:09.293Z,0
2016-03-16T04:47:23.499Z,0
2016-03-16T04:48:23.485Z,0
2016-03-16T04:49:10.129Z,0
2016-03-16T04:50:09.991Z,0
2016-03-16T04:51:10.041Z,0
2016-03-16T04:52:09.652Z,0
2016-03-16T04:53:09.593Z,0
2016-03-16T04:54:09.236Z,0
2016-03-16T04:55:09.207Z,0
2016-03-16T04:56:09.195Z,0
2016-03-16T04:57:09.182Z,0
2016-03-16T04:58:09.168Z,0
2016-03-16T04:59:09.015Z,0
2016-03-16T05:00:09.143Z,0
2016-03-16T05:01:09.145Z,0
2016-03-16T05:02:09.101Z,0
2016-03-16T05:03:09.151Z,0
2016-03-16T05:04:09.123Z,0
2016-03-16T05:05:09.109Z,0
2016-03-16T05:06:09.081Z,0
2016-03-16T05:07:09.089Z,0
2016-03-16T05:08:09.061Z,5
2016-03-16T05:09:09.048Z,5
2016-03-16T05:10:09.051Z,5
2016-03-16T05:11:09.053Z,5
2016-03-16T05:12:09.009Z,5
2016-03-16T05:13:09.027Z,10
2016-03-16T05:14:09.014Z,10
2016-03-16T05:15:08.970Z,10
2016-03-16T05:16:09.005Z,10
2016-03-16T05:17:08.945Z,10
2016-03-16T05:18:08.978Z,15
2016-03-16T05:19:08.919Z,15
2016-03-16T05:20:08.905Z,15
2016-03-16T05:21:08.908Z,20
2016-03-16T05:22:08.911Z,20
2016-03-16T05:23:08.913Z,20
2016-03-16T05:24:08.885Z,25
2016-03-16T05:25:08.904Z,25
2016-03-16T05:26:08.860Z,25
2016-03-16T05:27:08.847Z,30
2016-03-16T05:28:08.849Z,30
2016-03-16T05:29:08.805Z,35
2016-03-16T05:30:08.807Z,35
2016-03-16T05:31:08.779Z,40
2016-03-16T05:32:08.798Z,40
2016-03-16T05:33:08.815Z,45
2016-03-16T05:34:08.771Z,45
2016-03-16T05:35:08.774Z,50
2016-03-16T05:36:08.729Z,50
2016-03-16T05:37:08.764Z,50
2016-03-16T05:38:08.735Z,55
2016-03-16T05:39:08.723Z,60
2016-03-16T05:40:08.710Z,65
2016-03-16T05:41:11.384Z,65
2016-03-16T05:42:10.871Z,75
2016-03-16T05:43:09.889Z,70
2016-03-16T05:44:08.689Z,75
2016-03-16T05:45:09.301Z,80
2016-03-16T05:46:08.850Z,90
2016-03-16T05:47:08.619Z,85
2016-03-16T05:48:08.621Z,85
2016-03-16T05:49:08.593Z,90
2016-03-16T05:50:09.705Z,90
2016-03-16T05:51:08.583Z,95
2016-03-16T05:52:09.523Z,95
2016-03-16T05:53:09.713Z,95
2016-03-16T05:54:09.528Z,100
2016-03-16T05:55:08.624Z,110
2016-03-16T05:56:23.705Z,130
2016-03-16T05:57:22.786Z,125
2016-03-16T05:58:09.477Z,130
2016-03-16T05:59:08.558Z,125
2016-03-16T06:00:08.483Z,125
2016-03-16T06:01:08.485Z,135
2016-03-16T06:02:08.894Z,140
2016-03-16T06:03:08.991Z,145
2016-03-16T06:04:08.430Z,150
2016-03-16T06:05:08.465Z,160
2016-03-16T06:06:10.998Z,165
2016-03-16T06:07:08.423Z,170
2016-03-16T06:08:08.440Z,160
2016-03-16T06:09:08.428Z,180
2016-03-16T06:10:09.009Z,185
2016-03-16T06:11:08.402Z,185
2016-03-16T06:12:08.359Z,190
2016-03-16T06:13:08.361Z,195
2016-03-16T06:14:08.364Z,205
2016-03-16T06:15:08.335Z,210
2016-03-16T06:16:08.369Z,220
2016-03-16T06:17:08.309Z,225
2016-03-16T06:18:08.311Z,235
2016-03-16T06:19:08.299Z,235
2016-03-16T06:20:08.286Z,240
2016-03-16T06:21:08.288Z,245
2016-03-16T06:22:08.260Z,250
2016-03-16T06:23:08.247Z,260
2016-03-16T06:24:08.249Z,255
2016-03-16T06:25:08.253Z,265
2016-03-16T06:26:08.224Z,270
2016-03-16T06:27:08.289Z,255
2016-03-16T06:28:08.214Z,240
2016-03-16T06:29:08.280Z,280
2016-03-16T06:30:08.203Z,290
2016-03-16T06:31:08.190Z,305
2016-03-16T06:32:08.193Z,310
2016-03-16T06:33:08.196Z,295
2016-03-16T06:34:08.199Z,315
2016-03-16T06:35:08.154Z,330
2016-03-16T06:36:08.173Z,355
2016-03-16T06:37:08.175Z,365
2016-03-16T06:38:08.163Z,365
2016-03-16T06:39:08.149Z,370
2016-03-16T06:40:08.120Z,385
2016-03-16T06:41:08.170Z,400
2016-03-16T06:42:08.111Z,410
2016-03-16T06:43:08.128Z,410
2016-03-16T06:44:08.148Z,405
2016-03-16T06:45:08.134Z,405
2016-03-16T06:46:08.090Z,405
2016-03-16T06:47:08.078Z,430
2016-03-16T06:48:08.142Z,440
2016-03-16T06:49:08.083Z,440
2016-03-16T06:50:08.085Z,435
2016-03-16T06:51:08.072Z,425
2016-03-16T06:52:08.091Z,440
2016-03-16T06:53:08.031Z,460
2016-03-16T06:54:08.097Z,470
2016-03-16T06:55:08.052Z,485
2016-03-16T06:56:08.070Z,495
2016-03-16T06:57:08.026Z,500
2016-03-16T06:58:08.044Z,465
2016-03-16T06:59:08.062Z,495
2016-03-16T07:00:08.221Z,520
2016-03-16T07:01:08.318Z,505
2016-03-16T07:02:08.024Z,550
2016-03-16T07:03:08.964Z,570
2016-03-16T07:04:08.217Z,570
2016-03-16T07:05:08.094Z,580
2016-03-16T07:06:08.019Z,595
2016-03-16T07:07:08.007Z,595
2016-03-16T07:08:07.993Z,580
2016-03-16T07:10:10.092Z,580
2016-03-16T07:11:08.501Z,395
2016-03-16T07:12:09.159Z,600
2016-03-16T07:13:08.709Z,640
2016-03-16T07:14:08.650Z,685
2016-03-16T07:15:23.120Z,735
2016-03-16T07:16:22.780Z,760
2016-03-16T07:18:04.754Z,775
2016-03-16T07:18:31.348Z,660
2016-03-16T07:19:17.570Z,825
2016-03-16T07:20:17.431Z,825
2016-03-16T07:21:17.184Z,865
2016-03-16T07:22:16.968Z,735
2016-03-16T07:23:17.002Z,700
2016-03-16T07:24:16.989Z,795
2016-03-16T07:25:17.820Z,830
2016-03-16T07:26:17.980Z,790
2016-03-16T07:27:17.529Z,750
2016-03-16T07:28:16.969Z,470
2016-03-16T07:29:31.597Z,910
2016-03-16T07:30:17.427Z,830
2016-03-16T07:31:16.946Z,905
2016-03-16T07:32:16.963Z,820
2016-03-16T07:33:16.982Z,980
2016-03-16T07:34:17.001Z,685
2016-03-16T07:35:16.971Z,915
2016-03-16T07:36:16.959Z,620
2016-03-16T07:37:16.946Z,845
2016-03-16T07:38:16.965Z,285
2016-03-16T07:39:16.952Z,335
2016-03-16T07:40:16.985Z,705
2016-03-16T07:41:16.941Z,610
2016-03-16T07:42:16.990Z,775
2016-03-16T07:43:16.931Z,750
2016-03-16T07:44:17.073Z,495
2016-03-16T07:45:16.951Z,870
2016-03-16T07:46:16.954Z,765
2016-03-16T07:47:16.972Z,730
2016-03-16T07:48:16.944Z,745
2016-03-16T07:49:16.931Z,800
2016-03-16T07:50:16.981Z,630
2016-03-16T07:51:16.953Z,485
2016-03-16T07:52:16.955Z,345
2016-03-16T07:53:16.958Z,360
2016-03-16T07:54:16.944Z,415
2016-03-16T07:55:16.932Z,305
2016-03-16T07:56:16.935Z,270
2016-03-16T07:57:16.938Z,270
2016-03-16T07:58:16.925Z,300
2016-03-16T07:59:16.819Z,325
2016-03-16T08:00:16.930Z,395
2016-03-16T08:01:16.949Z,560
2016-03-16T08:02:16.919Z,855
2016-03-16T08:03:16.938Z,900
2016-03-16T08:04:16.909Z,990
2016-03-16T08:05:16.912Z,1060
2016-03-16T08:06:16.958Z,955
2016-03-16T08:07:16.914Z,880
2016-03-16T08:08:16.886Z,675
2016-03-16T08:09:16.919Z,545
2016-03-16T08:10:16.891Z,500
2016-03-16T08:11:16.893Z,480
2016-03-16T08:12:16.880Z,405
2016-03-16T08:13:16.899Z,365
2016-03-16T08:14:16.901Z,415
2016-03-16T08:15:16.904Z,390
2016-03-16T08:16:16.860Z,405
2016-03-16T08:17:16.894Z,365
2016-03-16T08:18:16.724Z,345
2016-03-16T08:19:17.727Z,305
2016-03-16T08:20:17.496Z,295
2016-03-16T08:21:16.858Z,335
2016-03-16T08:22:18.048Z,380
2016-03-16T08:23:16.846Z,355
2016-03-16T08:24:17.053Z,315
2016-03-16T08:25:17.306Z,330
2016-03-16T08:26:16.824Z,320
2016-03-16T08:27:16.827Z,315
2016-03-16T08:28:18.579Z,305
2016-03-16T08:29:16.895Z,300
2016-03-16T08:30:17.788Z,295
2016-03-16T08:31:18.025Z,300
2016-03-16T08:32:17.856Z,310
2016-03-16T08:33:16.796Z,315
2016-03-16T08:34:18.376Z,315
2016-03-16T08:35:17.317Z,315
2016-03-16T08:37:16.838Z,320
2016-03-16T08:38:16.762Z,315
2016-03-16T08:39:17.312Z,325
2016-03-16T08:40:16.986Z,325
2016-03-16T08:41:17.083Z,325
2016-03-16T08:42:16.882Z,320
2016-03-16T08:43:16.713Z,310
2016-03-16T08:44:18.653Z,305
2016-03-16T08:45:30.922Z,295
2016-03-16T08:46:16.721Z,295
2016-03-16T08:47:30.897Z,305
2016-03-16T08:48:16.711Z,300
2016-03-16T08:49:17.464Z,295
2016-03-16T08:50:16.748Z,290
2016-03-16T08:51:16.688Z,295
2016-03-16T08:52:16.675Z,295
2016-03-16T08:53:16.662Z,295
2016-03-16T08:54:16.665Z,300
2016-03-16T08:55:16.668Z,295
2016-03-16T08:56:16.640Z,295
2016-03-16T08:57:16.642Z,310
2016-03-16T08:58:16.629Z,300
2016-03-16T08:59:16.632Z,290
2016-03-16T09:00:16.618Z,290
2016-03-16T09:01:16.637Z,295
2016-03-16T09:02:16.593Z,300
2016-03-16T09:03:16.626Z,295
2016-03-16T09:04:16.598Z,290
2016-03-16T09:05:16.600Z,280
2016-03-16T09:06:16.593Z,280
2016-03-16T09:07:16.611Z,280
2016-03-16T09:08:16.583Z,280
2016-03-16T09:09:16.570Z,280
2016-03-16T09:10:16.556Z,270
2016-03-16T09:11:16.575Z,265
2016-03-16T09:12:16.546Z,260
2016-03-16T09:13:16.518Z,260
2016-03-16T09:14:16.552Z,260
2016-03-16T09:15:16.523Z,255
2016-03-16T09:16:16.526Z,255
2016-03-16T09:17:16.497Z,250
2016-03-16T09:18:16.531Z,260
2016-03-16T09:19:16.471Z,260
2016-03-16T09:20:16.504Z,265
2016-03-16T09:21:16.495Z,265
2016-03-16T09:22:16.498Z,270
2016-03-16T09:23:16.438Z,270
2016-03-16T09:24:16.472Z,265
2016-03-16T09:25:16.289Z,265
2016-03-16T09:26:16.595Z,260
2016-03-16T09:27:17.200Z,265
2016-03-16T09:28:16.268Z,265
2016-03-16T09:29:16.750Z,265
2016-03-16T09:30:44.341Z,265
2016-03-16T09:31:16.324Z,265
2016-03-16T09:32:16.369Z,260
2016-03-16T09:33:16.304Z,265
2016-03-16T09:34:16.318Z,260
2016-03-16T09:35:16.285Z,250
2016-03-16T09:36:16.271Z,250
2016-03-16T09:37:16.255Z,250
2016-03-16T09:38:18.334Z,255
2016-03-16T09:39:18.116Z,255
2016-03-16T09:40:17.429Z,265
2016-03-16T09:41:16.354Z,285
2016-03-16T09:42:17.168Z,280
2016-03-16T09:43:16.655Z,260
2016-03-16T09:44:16.671Z,250
2016-03-16T09:45:16.784Z,255
2016-03-16T09:46:16.162Z,255
2016-03-16T09:47:19.476Z,265
2016-03-16T09:48:17.761Z,265
2016-03-16T09:49:16.185Z,310
2016-03-16T09:50:16.344Z,310
2016-03-16T09:51:16.487Z,345
2016-03-16T09:52:16.849Z,290
2016-03-16T09:53:31.570Z,265
2016-03-16T09:54:18.417Z,265
2016-03-16T09:55:16.919Z,265
2016-03-16T09:56:16.158Z,265
2016-03-16T09:57:16.096Z,260
2016-03-16T09:58:16.131Z,260
2016-03-16T09:59:16.149Z,255
2016-03-16T10:00:16.121Z,260
2016-03-16T10:01:16.060Z,290
2016-03-16T10:02:16.111Z,325
2016-03-16T10:03:18.051Z,320
2016-03-16T10:04:16.099Z,270
2016-03-16T10:05:16.040Z,255
2016-03-16T10:07:16.232Z,245
2016-03-16T10:08:16.236Z,245
2016-03-16T10:09:16.051Z,250
2016-03-16T10:10:16.022Z,250
2016-03-16T10:11:16.010Z,250
2016-03-16T10:12:16.028Z,255
2016-03-16T10:13:16.015Z,250
2016-03-16T10:14:15.986Z,255
2016-03-16T10:15:15.974Z,255
2016-03-16T10:16:16.007Z,270
2016-03-16T10:17:15.979Z,280
2016-03-16T10:18:15.982Z,275
2016-03-16T10:19:15.984Z,280
2016-03-16T10:20:15.956Z,325
2016-03-16T10:21:15.974Z,340
2016-03-16T10:22:15.931Z,315
2016-03-16T10:23:15.948Z,300
2016-03-16T10:24:15.951Z,295
2016-03-16T10:25:15.938Z,320
2016-03-16T10:26:15.956Z,345
2016-03-16T10:27:15.928Z,380
2016-03-16T10:28:15.883Z,415
2016-03-16T10:29:15.933Z,435
2016-03-16T10:30:15.905Z,445
2016-03-16T10:31:15.922Z,425
2016-03-16T10:32:15.879Z,375
2016-03-16T10:33:15.913Z,315
2016-03-16T10:34:15.868Z,275
2016-03-16T10:35:15.871Z,245
2016-03-16T10:36:15.890Z,235
2016-03-16T10:37:15.861Z,235
2016-03-16T10:38:15.832Z,230
2016-03-16T10:39:15.851Z,235
2016-03-16T10:40:15.884Z,225
2016-03-16T10:41:15.840Z,235
2016-03-16T10:42:15.843Z,235
2016-03-16T10:43:15.829Z,220
2016-03-16T10:44:15.817Z,225
2016-03-16T10:45:15.820Z,215
2016-03-16T10:46:15.837Z,225
2016-03-16T10:47:15.794Z,230
2016-03-16T10:48:15.797Z,235
2016-03-16T10:49:15.800Z,250
2016-03-16T10:50:15.786Z,265
2016-03-16T10:51:15.821Z,265
2016-03-16T10:52:15.761Z,250
2016-03-16T10:53:15.826Z,240
2016-03-16T10:54:15.781Z,250
2016-03-16T10:55:15.784Z,240
2016-03-16T10:56:15.022Z,220
2016-03-16T10:57:16.572Z,215
2016-03-16T10:58:16.339Z,215
2016-03-16T10:59:15.733Z,215
2016-03-16T11:00:16.891Z,210
2016-03-16T11:01:15.739Z,210
2016-03-16T11:02:16.069Z,210
2016-03-16T11:03:16.213Z,210
2016-03-16T11:04:15.716Z,210
2016-03-16T11:05:15.718Z,215
2016-03-16T11:06:17.236Z,210
2016-03-16T11:07:16.160Z,210
2016-03-16T11:08:16.991Z,215
2016-03-16T11:09:15.697Z,215
2016-03-16T11:10:16.388Z,215
2016-03-16T11:11:16.093Z,220
2016-03-16T11:12:17.252Z,220
2016-03-16T11:13:16.833Z,225
2016-03-16T11:14:15.648Z,235
2016-03-16T11:15:16.479Z,245
2016-03-16T11:16:16.607Z,255
2016-03-16T11:17:16.141Z,285
2016-03-16T11:18:15.659Z,330
2016-03-16T11:19:15.818Z,330
2016-03-16T11:20:15.618Z,290
2016-03-16T11:21:15.604Z,255
2016-03-16T11:22:16.357Z,240
2016-03-16T11:23:31.375Z,230
2016-03-16T11:24:30.410Z,220
2016-03-16T11:25:15.803Z,210
2016-03-16T11:26:16.039Z,205
2016-03-16T11:27:15.714Z,205
2016-03-16T11:28:16.139Z,200
2016-03-16T11:29:15.751Z,200
2016-03-16T11:30:15.645Z,205
2016-03-16T11:31:15.539Z,205
2016-03-16T11:32:15.556Z,200
2016-03-16T11:33:15.528Z,200
2016-03-16T11:34:15.546Z,195
2016-03-16T11:35:15.532Z,195
2016-03-16T11:36:15.520Z,195
2016-03-16T11:37:15.522Z,195
2016-03-16T11:38:15.525Z,195
2016-03-16T11:39:15.512Z,195
2016-03-16T11:40:15.500Z,190
2016-03-16T11:41:15.471Z,190
2016-03-16T11:42:15.473Z,190
2016-03-16T11:43:15.524Z,190
2016-03-16T11:44:15.463Z,190
2016-03-16T11:45:15.560Z,190
2016-03-16T11:46:15.468Z,190
2016-03-16T11:47:15.456Z,190
2016-03-16T11:48:15.443Z,190
2016-03-16T11:49:15.462Z,185
2016-03-16T11:50:15.432Z,185
2016-03-16T11:51:15.467Z,185
2016-03-16T11:52:15.423Z,185
2016-03-16T11:53:15.425Z,185
2016-03-16T11:54:15.412Z,185
2016-03-16T11:55:15.414Z,185
2016-03-16T11:56:15.402Z,185
2016-03-16T11:57:15.404Z,185
2016-03-16T11:58:15.407Z,185
2016-03-16T11:59:15.394Z,185
2016-03-16T12:00:15.194Z,185
2016-03-16T12:01:15.400Z,185
2016-03-16T12:02:15.371Z,185
2016-03-16T12:03:15.389Z,185
2016-03-16T12:04:15.361Z,185
2016-03-16T12:05:15.348Z,185
2016-03-16T12:06:15.366Z,185
2016-03-16T12:07:15.353Z,185
2016-03-16T12:08:15.341Z,185
2016-03-16T12:09:15.343Z,185
2016-03-16T12:10:15.346Z,185
2016-03-16T12:11:15.302Z,185
2016-03-16T12:12:15.335Z,185
2016-03-16T12:13:15.322Z,185
2016-03-16T12:14:15.169Z,185
2016-03-16T12:15:15.312Z,185
2016-03-16T12:16:17.674Z,185
2016-03-16T12:17:17.458Z,185
2016-03-16T12:18:16.680Z,185
2016-03-16T12:19:15.932Z,185
2016-03-16T12:20:15.716Z,185
2016-03-16T12:21:15.251Z,185
2016-03-16T12:22:15.581Z,185
2016-03-16T12:23:15.271Z,185
2016-03-16T12:24:15.258Z,185
2016-03-16T12:25:16.823Z,185
2016-03-16T12:26:17.217Z,185
2016-03-16T12:27:15.251Z,185
2016-03-16T12:28:16.144Z,185
2016-03-16T12:29:15.912Z,185
2016-03-16T12:30:15.275Z,185
2016-03-16T12:31:16.043Z,185
2016-03-16T12:32:15.748Z,185
2016-03-16T12:33:15.205Z,185
2016-03-16T12:34:15.536Z,185
2016-03-16T12:35:15.647Z,180
2016-03-16T12:36:15.166Z,180
2016-03-16T12:37:15.168Z,180
2016-03-16T12:38:15.172Z,180
2016-03-16T12:39:15.174Z,180
2016-03-16T12:40:15.192Z,180
2016-03-16T12:41:15.632Z,180
2016-03-16T12:42:30.760Z,180
2016-03-16T12:43:16.107Z,180
2016-03-16T12:44:15.531Z,180
2016-03-16T12:45:15.362Z,180
2016-03-16T12:46:15.379Z,180
2016-03-16T12:47:15.274Z,180
2016-03-16T12:48:15.104Z,180
2016-03-16T12:49:15.138Z,180
2016-03-16T12:50:15.109Z,180
2016-03-16T12:51:15.097Z,180
2016-03-16T12:52:15.099Z,180
2016-03-16T12:53:15.087Z,180
2016-03-16T12:54:15.104Z,180
2016-03-16T12:55:15.092Z,180
2016-03-16T12:56:15.063Z,180
2016-03-16T12:57:15.066Z,180
2016-03-16T12:58:15.068Z,180
2016-03-16T12:59:15.056Z,180
2016-03-16T13:00:15.059Z,180
2016-03-16T13:01:15.046Z,180
2016-03-16T13:02:15.048Z,180
2016-03-16T13:03:15.050Z,180
2016-03-16T13:04:15.054Z,180
2016-03-16T13:05:15.025Z,180
2016-03-16T13:06:15.044Z,180
2016-03-16T13:07:15.014Z,180
2016-03-16T13:08:15.033Z,180
2016-03-16T13:09:14.989Z,180
2016-03-16T13:10:15.038Z,180
2016-03-16T13:11:14.978Z,180
2016-03-16T13:12:15.027Z,175
2016-03-16T13:13:14.984Z,175
2016-03-16T13:14:15.002Z,175
2016-03-16T13:15:14.958Z,175
2016-03-16T13:16:14.976Z,175
2016-03-16T13:17:14.995Z,175
2016-03-16T13:18:14.966Z,175
2016-03-16T13:19:14.984Z,175
2016-03-16T13:20:14.940Z,175
2016-03-16T13:21:14.958Z,175
2016-03-16T13:22:14.915Z,175
2016-03-16T13:23:14.964Z,175
2016-03-16T13:24:14.935Z,175
2016-03-16T13:25:14.937Z,175
2016-03-16T13:26:14.894Z,175
2016-03-16T13:27:14.959Z,175
2016-03-16T13:28:14.883Z,175
2016-03-16T13:29:14.917Z,175
2016-03-16T13:30:14.890Z,175
2016-03-16T13:31:14.892Z,175
2016-03-16T13:32:14.894Z,175
2016-03-16T13:33:14.897Z,175
2016-03-16T13:34:14.883Z,175
2016-03-16T13:35:15.465Z,175
2016-03-16T13:36:15.624Z,175
2016-03-16T13:37:15.189Z,175
2016-03-16T13:38:14.847Z,175
2016-03-16T13:39:15.539Z,175
2016-03-16T13:40:15.494Z,175
2016-03-16T13:41:15.637Z,170
2016-03-16T13:42:15.124Z,170
2016-03-16T13:43:14.830Z,170
2016-03-16T13:44:16.614Z,170
2016-03-16T13:45:15.273Z,170
2016-03-16T13:46:16.432Z,170
2016-03-16T13:47:14.809Z,170
2016-03-16T13:48:14.828Z,170
2016-03-16T13:49:15.471Z,170
2016-03-16T13:50:31.537Z,170
2016-03-16T13:51:14.789Z,170
2016-03-16T13:52:30.089Z,170
2016-03-16T13:53:14.763Z,170
2016-03-16T13:54:14.781Z,170
2016-03-16T13:55:15.222Z,170
2016-03-16T13:56:14.865Z,170
2016-03-16T13:57:15.087Z,170
2016-03-16T13:58:14.917Z,170
2016-03-16T13:59:14.732Z,170
2016-03-16T14:00:43.110Z,170
2016-03-16T14:01:15.285Z,170
2016-03-16T14:02:15.006Z,170
2016-03-16T14:03:14.712Z,170
2016-03-16T14:04:15.090Z,170
2016-03-16T14:05:14.827Z,170
2016-03-16T14:06:14.705Z,165
2016-03-16T14:07:14.708Z,165
2016-03-16T14:08:14.711Z,165
2016-03-16T14:09:14.697Z,165
2016-03-16T14:10:14.716Z,165
2016-03-16T14:11:14.718Z,165
2016-03-16T14:12:14.689Z,165